sensor_id;sensor_type;location;lat;lon;timestamp;pressure;altitude;pressure_sealevel;temperature;humidity
15880;BME280;61999;51.514;14.614;2023-04-24T00:01:42;98812.59;;;6.83;52.01
15880;BME280;61999;51.514;14.614;2023-04-24T00:04:10;98815.47;;;6.80;52.04
15880;BME280;61999;51.514;14.614;2023-04-24T00:06:40;98807.59;;;6.80;52.39
15880;BME280;61999;51.514;14.614;2023-04-24T00:09:09;98805.09;;;6.79;52.02
15880;BME280;61999;51.514;14.614;2023-04-24T00:11:37;98801.78;;;6.77;52.26
15880;BME280;61999;51.514;14.614;2023-04-24T00:14:05;98798.44;;;6.75;52.06
15880;BME280;61999;51.514;14.614;2023-04-24T00:16:33;98801.19;;;6.73;52.48
15880;BME280;61999;51.514;14.614;2023-04-24T00:19:03;98800.59;;;6.70;53.36
15880;BME280;61999;51.514;14.614;2023-04-24T00:21:32;98793.13;;;6.65;53.73
15880;BME280;61999;51.514;14.614;2023-04-24T00:24:00;98795.06;;;6.63;54.39
15880;BME280;61999;51.514;14.614;2023-04-24T00:26:28;98790.50;;;6.65;54.28
15880;BME280;61999;51.514;14.614;2023-04-24T00:28:56;98787.88;;;6.65;54.02
15880;BME280;61999;51.514;14.614;2023-04-24T00:31:24;98782.66;;;6.65;54.14
15880;BME280;61999;51.514;14.614;2023-04-24T00:33:52;98777.66;;;6.62;54.61
15880;BME280;61999;51.514;14.614;2023-04-24T00:36:21;98774.94;;;6.63;54.59
15880;BME280;61999;51.514;14.614;2023-04-24T00:38:49;98774.13;;;6.63;54.31
15880;BME280;61999;51.514;14.614;2023-04-24T00:41:17;98767.19;;;6.62;54.57
15880;BME280;61999;51.514;14.614;2023-04-24T00:43:45;98769.97;;;6.60;54.86
15880;BME280;61999;51.514;14.614;2023-04-24T00:46:14;98762.22;;;6.59;54.98
15880;BME280;61999;51.514;14.614;2023-04-24T00:48:43;98766.63;;;6.58;54.95
15880;BME280;61999;51.514;14.614;2023-04-24T00:51:12;98769.63;;;6.54;55.46
15880;BME280;61999;51.514;14.614;2023-04-24T00:53:41;98757.50;;;6.53;55.16
15880;BME280;61999;51.514;14.614;2023-04-24T00:56:09;98759.41;;;6.51;55.76
15880;BME280;61999;51.514;14.614;2023-04-24T00:58:38;98761.59;;;6.46;56.01
15880;BME280;61999;51.514;14.614;2023-04-24T01:01:06;98755.66;;;6.43;56.02
15880;BME280;61999;51.514;14.614;2023-04-24T01:03:35;98752.22;;;6.43;55.53
15880;BME280;61999;51.514;14.614;2023-04-24T01:06:05;98755.19;;;6.38;56.25
15880;BME280;61999;51.514;14.614;2023-04-24T01:08:35;98753.56;;;6.37;55.58
15880;BME280;61999;51.514;14.614;2023-04-24T01:11:05;98764.03;;;6.37;55.96
15880;BME280;61999;51.514;14.614;2023-04-24T01:13:34;98745.25;;;6.32;56.65
15880;BME280;61999;51.514;14.614;2023-04-24T01:16:02;98749.09;;;6.28;56.94
15880;BME280;61999;51.514;14.614;2023-04-24T01:18:30;98739.28;;;6.30;57.01
15880;BME280;61999;51.514;14.614;2023-04-24T01:21:02;98747.16;;;6.30;56.37
15880;BME280;61999;51.514;14.614;2023-04-24T01:23:32;98746.47;;;6.28;56.61
15880;BME280;61999;51.514;14.614;2023-04-24T01:26:01;98742.44;;;6.24;57.09
15880;BME280;61999;51.514;14.614;2023-04-24T01:28:29;98740.78;;;6.23;57.15
15880;BME280;61999;51.514;14.614;2023-04-24T01:30:57;98740.88;;;6.21;56.67
15880;BME280;61999;51.514;14.614;2023-04-24T01:33:26;98735.78;;;6.20;56.54
15880;BME280;61999;51.514;14.614;2023-04-24T01:35:54;98735.19;;;6.16;56.07
15880;BME280;61999;51.514;14.614;2023-04-24T01:38:22;98740.56;;;6.15;56.31
15880;BME280;61999;51.514;14.614;2023-04-24T01:40:52;98748.69;;;6.12;56.31
15880;BME280;61999;51.514;14.614;2023-04-24T01:43:21;98753.69;;;6.04;56.26
15880;BME280;61999;51.514;14.614;2023-04-24T01:45:49;98756.44;;;6.02;56.32
15880;BME280;61999;51.514;14.614;2023-04-24T01:48:17;98756.69;;;5.99;56.18
15880;BME280;61999;51.514;14.614;2023-04-24T01:50:45;98757.75;;;5.96;55.98
15880;BME280;61999;51.514;14.614;2023-04-24T01:53:14;98752.78;;;5.93;55.91
15880;BME280;61999;51.514;14.614;2023-04-24T01:55:42;98749.47;;;5.91;55.84
15880;BME280;61999;51.514;14.614;2023-04-24T01:58:11;98757.56;;;5.88;55.79
15880;BME280;61999;51.514;14.614;2023-04-24T02:00:39;98750.19;;;5.82;55.99
15880;BME280;61999;51.514;14.614;2023-04-24T02:03:07;98752.81;;;5.82;55.98
15880;BME280;61999;51.514;14.614;2023-04-24T02:05:35;98746.91;;;5.80;55.60
15880;BME280;61999;51.514;14.614;2023-04-24T02:08:03;98745.34;;;5.77;55.75
15880;BME280;61999;51.514;14.614;2023-04-24T02:10:31;98744.53;;;5.77;55.71
15880;BME280;61999;51.514;14.614;2023-04-24T02:12:59;98742.84;;;5.76;55.76
15880;BME280;61999;51.514;14.614;2023-04-24T02:15:29;98734.31;;;5.74;55.69
15880;BME280;61999;51.514;14.614;2023-04-24T02:17:56;98731.00;;;5.72;55.49
15880;BME280;61999;51.514;14.614;2023-04-24T02:20:25;98736.22;;;5.72;55.68
15880;BME280;61999;51.514;14.614;2023-04-24T02:22:53;98727.66;;;5.70;55.34
15880;BME280;61999;51.514;14.614;2023-04-24T02:25:22;98734.78;;;5.68;55.48
15880;BME280;61999;51.514;14.614;2023-04-24T02:27:50;98738.34;;;5.67;55.15
15880;BME280;61999;51.514;14.614;2023-04-24T02:30:18;98724.53;;;5.65;55.34
15880;BME280;61999;51.514;14.614;2023-04-24T02:32:47;98729.09;;;5.63;55.66
15880;BME280;61999;51.514;14.614;2023-04-24T02:35:16;98728.22;;;5.62;55.13
15880;BME280;61999;51.514;14.614;2023-04-24T02:37:44;98721.50;;;5.60;55.41
15880;BME280;61999;51.514;14.614;2023-04-24T02:40:12;98715.41;;;5.59;55.13
15880;BME280;61999;51.514;14.614;2023-04-24T02:42:41;98714.59;;;5.59;55.24
15880;BME280;61999;51.514;14.614;2023-04-24T02:45:10;98718.16;;;5.58;55.30
15880;BME280;61999;51.514;14.614;2023-04-24T02:47:38;98707.97;;;5.54;55.33
15880;BME280;61999;51.514;14.614;2023-04-24T02:50:08;98713.19;;;5.54;55.01
15880;BME280;61999;51.514;14.614;2023-04-24T02:52:36;98711.75;;;5.50;55.26
15880;BME280;61999;51.514;14.614;2023-04-24T02:55:05;98717.94;;;5.49;55.36
15880;BME280;61999;51.514;14.614;2023-04-24T02:57:34;98711.19;;;5.47;55.06
15880;BME280;61999;51.514;14.614;2023-04-24T03:00:03;98706.78;;;5.47;55.30
15880;BME280;61999;51.514;14.614;2023-04-24T03:02:33;98713.06;;;5.45;55.36
15880;BME280;61999;51.514;14.614;2023-04-24T03:05:01;98707.00;;;5.44;55.59
15880;BME280;61999;51.514;14.614;2023-04-24T03:07:32;98717.47;;;5.44;55.81
15880;BME280;61999;51.514;14.614;2023-04-24T03:10:00;98713.94;;;5.45;55.64
15880;BME280;61999;51.514;14.614;2023-04-24T03:12:28;98710.34;;;5.46;55.77
15880;BME280;61999;51.514;14.614;2023-04-24T03:14:56;98716.28;;;5.48;56.06
15880;BME280;61999;51.514;14.614;2023-04-24T03:17:24;98703.81;;;5.52;55.88
15880;BME280;61999;51.514;14.614;2023-04-24T03:19:52;98704.38;;;5.55;55.68
15880;BME280;61999;51.514;14.614;2023-04-24T03:22:20;98709.34;;;5.59;55.97
15880;BME280;61999;51.514;14.614;2023-04-24T03:24:49;98709.09;;;5.62;56.07
15880;BME280;61999;51.514;14.614;2023-04-24T03:27:17;98708.84;;;5.65;56.09
15880;BME280;61999;51.514;14.614;2023-04-24T03:29:45;98709.72;;;5.65;56.08
15880;BME280;61999;51.514;14.614;2023-04-24T03:32:13;98705.09;;;5.69;56.17
15880;BME280;61999;51.514;14.614;2023-04-24T03:34:41;98711.97;;;5.70;56.09
15880;BME280;61999;51.514;14.614;2023-04-24T03:37:09;98710.06;;;5.72;56.15
15880;BME280;61999;51.514;14.614;2023-04-24T03:39:37;98708.16;;;5.74;56.24
15880;BME280;61999;51.514;14.614;2023-04-24T03:42:06;98711.47;;;5.76;56.15
15880;BME280;61999;51.514;14.614;2023-04-24T03:44:35;98716.69;;;5.76;56.51
15880;BME280;61999;51.514;14.614;2023-04-24T03:47:03;98722.53;;;5.80;56.57
15880;BME280;61999;51.514;14.614;2023-04-24T03:49:31;98718.53;;;5.42;61.24
15880;BME280;61999;51.514;14.614;2023-04-24T03:51:59;98732.09;;;5.36;62.46
15880;BME280;61999;51.514;14.614;2023-04-24T03:54:27;98741.97;;;4.29;71.66
15880;BME280;61999;51.514;14.614;2023-04-24T03:56:55;98741.03;;;4.30;73.15
15880;BME280;61999;51.514;14.614;2023-04-24T03:59:24;98738.78;;;4.26;74.13
15880;BME280;61999;51.514;14.614;2023-04-24T04:01:52;98740.16;;;4.18;74.88
15880;BME280;61999;51.514;14.614;2023-04-24T04:04:20;98746.22;;;4.54;73.82
15880;BME280;61999;51.514;14.614;2023-04-24T04:06:48;98752.13;;;3.86;76.79
15880;BME280;61999;51.514;14.614;2023-04-24T04:09:16;98752.28;;;3.71;78.38
15880;BME280;61999;51.514;14.614;2023-04-24T04:11:44;98756.25;;;3.40;80.86
15880;BME280;61999;51.514;14.614;2023-04-24T04:14:12;98762.22;;;3.29;82.16
15880;BME280;61999;51.514;14.614;2023-04-24T04:16:41;98761.06;;;3.34;82.49
15880;BME280;61999;51.514;14.614;2023-04-24T04:19:10;98769.19;;;3.29;83.71
15880;BME280;61999;51.514;14.614;2023-04-24T04:21:38;98765.03;;;3.26;84.22
15880;BME280;61999;51.514;14.614;2023-04-24T04:24:06;98767.28;;;3.18;84.48
15880;BME280;61999;51.514;14.614;2023-04-24T04:26:34;98781.47;;;3.14;85.44
15880;BME280;61999;51.514;14.614;2023-04-24T04:29:04;98776.03;;;3.43;83.58
15880;BME280;61999;51.514;14.614;2023-04-24T04:31:33;98779.25;;;3.59;82.90
15880;BME280;61999;51.514;14.614;2023-04-24T04:34:02;98774.69;;;3.37;83.84
15880;BME280;61999;51.514;14.614;2023-04-24T04:36:30;98780.00;;;3.48;83.11
15880;BME280;61999;51.514;14.614;2023-04-24T04:38:58;98778.53;;;3.19;84.59
15880;BME280;61999;51.514;14.614;2023-04-24T04:41:26;98777.63;;;3.07;85.50
15880;BME280;61999;51.514;14.614;2023-04-24T04:43:54;98773.16;;;3.09;86.05
15880;BME280;61999;51.514;14.614;2023-04-24T04:46:25;98781.06;;;3.20;85.66
15880;BME280;61999;51.514;14.614;2023-04-24T04:48:53;98780.75;;;3.38;84.32
15880;BME280;61999;51.514;14.614;2023-04-24T04:51:24;98786.03;;;3.49;83.39
15880;BME280;61999;51.514;14.614;2023-04-24T04:53:52;98787.53;;;3.64;83.30
15880;BME280;61999;51.514;14.614;2023-04-24T04:56:20;98780.06;;;3.84;82.10
15880;BME280;61999;51.514;14.614;2023-04-24T04:58:49;98785.97;;;3.74;81.69
15880;BME280;61999;51.514;14.614;2023-04-24T05:01:17;98795.56;;;3.61;82.50
15880;BME280;61999;51.514;14.614;2023-04-24T05:03:45;98793.72;;;3.50;83.10
15880;BME280;61999;51.514;14.614;2023-04-24T05:06:13;98785.22;;;3.72;82.08
15880;BME280;61999;51.514;14.614;2023-04-24T05:08:43;98785.84;;;4.00;80.63
15880;BME280;61999;51.514;14.614;2023-04-24T05:11:11;98795.63;;;4.09;79.90
15880;BME280;61999;51.514;14.614;2023-04-24T05:13:38;98792.38;;;4.30;78.33
15880;BME280;61999;51.514;14.614;2023-04-24T05:16:07;98795.34;;;4.25;79.40
15880;BME280;61999;51.514;14.614;2023-04-24T05:18:35;98796.81;;;4.40;78.97
15880;BME280;61999;51.514;14.614;2023-04-24T05:21:03;98799.97;;;4.57;77.31
15880;BME280;61999;51.514;14.614;2023-04-24T05:23:31;98798.22;;;4.45;78.41
15880;BME280;61999;51.514;14.614;2023-04-24T05:26:00;98793.75;;;5.04;76.11
15880;BME280;61999;51.514;14.614;2023-04-24T05:28:29;98800.09;;;4.67;76.09
15880;BME280;61999;51.514;14.614;2023-04-24T05:30:57;98788.25;;;4.62;75.86
15880;BME280;61999;51.514;14.614;2023-04-24T05:33:26;98801.53;;;4.71;76.78
15880;BME280;61999;51.514;14.614;2023-04-24T05:35:54;98803.31;;;4.35;77.75
15880;BME280;61999;51.514;14.614;2023-04-24T05:38:22;98802.81;;;4.54;76.84
15880;BME280;61999;51.514;14.614;2023-04-24T05:40:50;98803.41;;;4.57;76.69
15880;BME280;61999;51.514;14.614;2023-04-24T05:43:19;98808.34;;;4.49;77.73
15880;BME280;61999;51.514;14.614;2023-04-24T05:45:47;98805.00;;;4.47;77.47
15880;BME280;61999;51.514;14.614;2023-04-24T05:48:15;98803.34;;;4.46;77.76
15880;BME280;61999;51.514;14.614;2023-04-24T05:50:43;98805.63;;;4.27;79.01
15880;BME280;61999;51.514;14.614;2023-04-24T05:53:11;98808.34;;;4.49;77.44
15880;BME280;61999;51.514;14.614;2023-04-24T05:55:39;98811.63;;;4.40;77.44
15880;BME280;61999;51.514;14.614;2023-04-24T05:58:07;98802.38;;;4.47;76.83
15880;BME280;61999;51.514;14.614;2023-04-24T06:00:37;98810.69;;;4.41;77.96
15880;BME280;61999;51.514;14.614;2023-04-24T06:03:09;98814.25;;;4.40;78.26
15880;BME280;61999;51.514;14.614;2023-04-24T06:05:37;98817.53;;;4.42;77.10
15880;BME280;61999;51.514;14.614;2023-04-24T06:08:05;98820.16;;;4.66;77.01
15880;BME280;61999;51.514;14.614;2023-04-24T06:10:33;98823.34;;;4.58;77.09
15880;BME280;61999;51.514;14.614;2023-04-24T06:13:01;98824.53;;;4.54;77.96
15880;BME280;61999;51.514;14.614;2023-04-24T06:15:30;98822.75;;;4.31;78.20
15880;BME280;61999;51.514;14.614;2023-04-24T06:17:59;98827.13;;;4.54;77.57
15880;BME280;61999;51.514;14.614;2023-04-24T06:20:27;98825.56;;;5.09;75.31
15880;BME280;61999;51.514;14.614;2023-04-24T06:22:55;98830.81;;;5.09;72.79
15880;BME280;61999;51.514;14.614;2023-04-24T06:25:25;98819.63;;;4.96;74.92
15880;BME280;61999;51.514;14.614;2023-04-24T06:27:54;98818.91;;;4.94;73.38
15880;BME280;61999;51.514;14.614;2023-04-24T06:30:22;98813.72;;;5.17;72.38
15880;BME280;61999;51.514;14.614;2023-04-24T06:32:51;98813.94;;;5.14;71.86
15880;BME280;61999;51.514;14.614;2023-04-24T06:35:20;98821.78;;;5.02;70.42
15880;BME280;61999;51.514;14.614;2023-04-24T06:37:48;98815.88;;;5.23;71.21
15880;BME280;61999;51.514;14.614;2023-04-24T06:40:16;98808.13;;;5.44;69.23
15880;BME280;61999;51.514;14.614;2023-04-24T06:42:45;98808.47;;;5.39;67.55
15880;BME280;61999;51.514;14.614;2023-04-24T06:45:13;98814.50;;;5.62;65.76
15880;BME280;61999;51.514;14.614;2023-04-24T06:47:41;98808.47;;;5.28;65.87
15880;BME280;61999;51.514;14.614;2023-04-24T06:50:10;98803.97;;;5.19;66.21
15880;BME280;61999;51.514;14.614;2023-04-24T06:52:40;98815.38;;;5.40;64.20
15880;BME280;61999;51.514;14.614;2023-04-24T06:55:08;98806.09;;;5.25;64.75
15880;BME280;61999;51.514;14.614;2023-04-24T06:57:37;98809.44;;;5.27;65.25
15880;BME280;61999;51.514;14.614;2023-04-24T07:00:07;98804.69;;;5.32;64.13
15880;BME280;61999;51.514;14.614;2023-04-24T07:02:36;98808.22;;;5.42;64.78
15880;BME280;61999;51.514;14.614;2023-04-24T07:05:04;98805.66;;;6.40;61.83
15880;BME280;61999;51.514;14.614;2023-04-24T07:07:33;98806.88;;;5.93;62.19
15880;BME280;61999;51.514;14.614;2023-04-24T07:10:07;98804.13;;;6.59;62.10
15880;BME280;61999;51.514;14.614;2023-04-24T07:12:35;98813.78;;;7.00;57.96
15880;BME280;61999;51.514;14.614;2023-04-24T07:15:05;98813.81;;;6.26;60.45
15880;BME280;61999;51.514;14.614;2023-04-24T07:17:34;98809.22;;;6.39;59.54
15880;BME280;61999;51.514;14.614;2023-04-24T07:20:03;98818.44;;;6.55;59.58
15880;BME280;61999;51.514;14.614;2023-04-24T07:22:32;98805.13;;;6.47;59.86
15880;BME280;61999;51.514;14.614;2023-04-24T07:25:00;98802.19;;;7.24;57.70
15880;BME280;61999;51.514;14.614;2023-04-24T07:27:29;98796.38;;;7.70;55.36
15880;BME280;61999;51.514;14.614;2023-04-24T07:29:57;98800.47;;;7.53;55.46
15880;BME280;61999;51.514;14.614;2023-04-24T07:32:25;98800.78;;;7.60;54.89
15880;BME280;61999;51.514;14.614;2023-04-24T07:34:53;98809.38;;;7.72;55.26
15880;BME280;61999;51.514;14.614;2023-04-24T07:37:22;98814.41;;;7.85;53.64
15880;BME280;61999;51.514;14.614;2023-04-24T07:39:50;98813.72;;;6.91;55.16
15880;BME280;61999;51.514;14.614;2023-04-24T07:42:18;98820.91;;;6.88;56.15
15880;BME280;61999;51.514;14.614;2023-04-24T07:44:48;98820.94;;;6.98;57.02
15880;BME280;61999;51.514;14.614;2023-04-24T07:47:16;98828.81;;;6.13;58.32
15880;BME280;61999;51.514;14.614;2023-04-24T07:49:44;98825.47;;;6.22;58.68
15880;BME280;61999;51.514;14.614;2023-04-24T07:52:11;98829.66;;;6.46;58.92
15880;BME280;61999;51.514;14.614;2023-04-24T07:54:39;98823.22;;;5.74;60.24
15880;BME280;61999;51.514;14.614;2023-04-24T07:57:08;98828.31;;;5.64;60.13
15880;BME280;61999;51.514;14.614;2023-04-24T07:59:36;98828.38;;;5.96;59.57
15880;BME280;61999;51.514;14.614;2023-04-24T08:02:05;98829.88;;;5.78;59.93
15880;BME280;61999;51.514;14.614;2023-04-24T08:04:33;98820.09;;;6.56;59.12
15880;BME280;61999;51.514;14.614;2023-04-24T08:07:01;98813.44;;;6.52;58.00
15880;BME280;61999;51.514;14.614;2023-04-24T08:09:29;98828.25;;;6.41;57.74
15880;BME280;61999;51.514;14.614;2023-04-24T08:11:57;98832.06;;;6.05;59.35
15880;BME280;61999;51.514;14.614;2023-04-24T08:14:25;98829.38;;;5.84;59.87
15880;BME280;61999;51.514;14.614;2023-04-24T08:16:54;98822.59;;;6.25;59.17
15880;BME280;61999;51.514;14.614;2023-04-24T08:19:24;98827.69;;;6.06;59.00
15880;BME280;61999;51.514;14.614;2023-04-24T08:21:52;98825.50;;;6.11;59.43
15880;BME280;61999;51.514;14.614;2023-04-24T08:24:21;98814.41;;;6.18;59.54
15880;BME280;61999;51.514;14.614;2023-04-24T08:26:49;98822.25;;;6.51;59.14
15880;BME280;61999;51.514;14.614;2023-04-24T08:29:18;98814.97;;;6.75;57.63
15880;BME280;61999;51.514;14.614;2023-04-24T08:31:46;98814.75;;;6.25;59.12
15880;BME280;61999;51.514;14.614;2023-04-24T08:34:14;98825.75;;;6.08;59.80
15880;BME280;61999;51.514;14.614;2023-04-24T08:36:43;98826.06;;;7.00;57.44
15880;BME280;61999;51.514;14.614;2023-04-24T08:39:12;98834.78;;;6.68;57.08
15880;BME280;61999;51.514;14.614;2023-04-24T08:41:42;98827.16;;;6.65;58.73
15880;BME280;61999;51.514;14.614;2023-04-24T08:44:14;98827.78;;;6.89;57.60
15880;BME280;61999;51.514;14.614;2023-04-24T08:46:43;98837.53;;;6.46;58.59
15880;BME280;61999;51.514;14.614;2023-04-24T08:49:49;98823.78;;;6.32;60.03
15880;BME280;61999;51.514;14.614;2023-04-24T08:52:19;98834.16;;;6.97;58.95
15880;BME280;61999;51.514;14.614;2023-04-24T08:54:49;98835.47;;;8.23;55.37
15880;BME280;61999;51.514;14.614;2023-04-24T08:57:18;98845.25;;;8.31;53.63
15880;BME280;61999;51.514;14.614;2023-04-24T08:59:47;98839.19;;;7.71;53.84
15880;BME280;61999;51.514;14.614;2023-04-24T09:02:16;98843.22;;;7.14;56.30
15880;BME280;61999;51.514;14.614;2023-04-24T09:04:47;98832.41;;;7.68;54.37
15880;BME280;61999;51.514;14.614;2023-04-24T09:07:16;98840.28;;;7.68;55.10
15880;BME280;61999;51.514;14.614;2023-04-24T09:09:46;98842.06;;;7.27;55.68
15880;BME280;61999;51.514;14.614;2023-04-24T09:12:14;98830.28;;;7.43;55.22
15880;BME280;61999;51.514;14.614;2023-04-24T09:14:42;98828.25;;;8.26;52.53
15880;BME280;61999;51.514;14.614;2023-04-24T09:17:12;98823.56;;;8.10;53.34
15880;BME280;61999;51.514;14.614;2023-04-24T09:19:40;98822.91;;;7.37;54.98
15880;BME280;61999;51.514;14.614;2023-04-24T09:22:09;98829.53;;;7.71;53.65
15880;BME280;61999;51.514;14.614;2023-04-24T09:24:38;98828.69;;;7.30;54.38
15880;BME280;61999;51.514;14.614;2023-04-24T09:27:11;98819.69;;;8.33;52.89
15880;BME280;61999;51.514;14.614;2023-04-24T09:29:53;98821.06;;;8.28;50.89
15880;BME280;61999;51.514;14.614;2023-04-24T09:32:23;98820.50;;;8.92;49.95
15880;BME280;61999;51.514;14.614;2023-04-24T09:35:07;98812.78;;;8.42;50.16
15880;BME280;61999;51.514;14.614;2023-04-24T09:37:37;98819.28;;;7.59;52.19
15880;BME280;61999;51.514;14.614;2023-04-24T09:40:14;98810.81;;;8.93;51.36
15880;BME280;61999;51.514;14.614;2023-04-24T09:42:53;98805.78;;;9.74;49.32
15880;BME280;61999;51.514;14.614;2023-04-24T09:45:23;98794.31;;;10.29;47.75
15880;BME280;61999;51.514;14.614;2023-04-24T09:47:55;98798.16;;;10.96;45.13
15880;BME280;61999;51.514;14.614;2023-04-24T09:50:24;98796.06;;;10.82;45.33
15880;BME280;61999;51.514;14.614;2023-04-24T09:52:58;98800.41;;;10.65;44.29
15880;BME280;61999;51.514;14.614;2023-04-24T09:55:27;98792.94;;;10.78;44.99
15880;BME280;61999;51.514;14.614;2023-04-24T09:57:58;98805.50;;;9.77;47.04
15880;BME280;61999;51.514;14.614;2023-04-24T10:00:29;98802.38;;;11.15;44.30
15880;BME280;61999;51.514;14.614;2023-04-24T10:02:58;98804.94;;;11.33;44.58
15880;BME280;61999;51.514;14.614;2023-04-24T10:05:30;98796.78;;;11.18;43.42
15880;BME280;61999;51.514;14.614;2023-04-24T10:08:04;98792.53;;;11.25;42.41
15880;BME280;61999;51.514;14.614;2023-04-24T10:10:34;98798.06;;;9.63;46.80
15880;BME280;61999;51.514;14.614;2023-04-24T10:13:08;98801.94;;;9.68;47.35
15880;BME280;61999;51.514;14.614;2023-04-24T10:15:36;98809.19;;;8.53;51.07
15880;BME280;61999;51.514;14.614;2023-04-24T10:18:05;98812.50;;;8.16;52.01
15880;BME280;61999;51.514;14.614;2023-04-24T10:20:37;98804.91;;;8.32;52.11
15880;BME280;61999;51.514;14.614;2023-04-24T10:23:06;98821.06;;;7.58;53.62
15880;BME280;61999;51.514;14.614;2023-04-24T10:25:35;98820.47;;;6.72;62.44
15880;BME280;61999;51.514;14.614;2023-04-24T10:28:05;98818.31;;;6.24;66.84
15880;BME280;61999;51.514;14.614;2023-04-24T10:30:35;98832.91;;;6.06;66.90
15880;BME280;61999;51.514;14.614;2023-04-24T10:33:05;98857.88;;;5.08;72.80
15880;BME280;61999;51.514;14.614;2023-04-24T10:35:39;98851.16;;;4.82;81.89
15880;BME280;61999;51.514;14.614;2023-04-24T10:38:12;98864.09;;;4.00;87.88
15880;BME280;61999;51.514;14.614;2023-04-24T10:40:42;98865.50;;;3.67;93.47
15880;BME280;61999;51.514;14.614;2023-04-24T10:43:18;98864.16;;;4.11;96.22
15880;BME280;61999;51.514;14.614;2023-04-24T10:46:01;98854.66;;;5.16;88.61
15880;BME280;61999;51.514;14.614;2023-04-24T10:48:31;98840.59;;;6.18;81.67
15880;BME280;61999;51.514;14.614;2023-04-24T10:50:59;98841.34;;;6.62;79.20
15880;BME280;61999;51.514;14.614;2023-04-24T10:53:29;98843.88;;;7.06;79.48
15880;BME280;61999;51.514;14.614;2023-04-24T10:56:02;98839.00;;;7.22;78.76
15880;BME280;61999;51.514;14.614;2023-04-24T10:58:41;98846.41;;;7.78;75.05
15880;BME280;61999;51.514;14.614;2023-04-24T11:01:24;98835.66;;;7.82;76.45
15880;BME280;61999;51.514;14.614;2023-04-24T11:03:56;98848.31;;;8.27;73.08
15880;BME280;61999;51.514;14.614;2023-04-24T11:06:32;98840.44;;;8.46;70.99
15880;BME280;61999;51.514;14.614;2023-04-24T11:09:04;98846.25;;;8.79;71.04
15880;BME280;61999;51.514;14.614;2023-04-24T11:11:34;98840.56;;;8.15;69.55
15880;BME280;61999;51.514;14.614;2023-04-24T11:14:08;98837.53;;;8.49;68.88
15880;BME280;61999;51.514;14.614;2023-04-24T11:16:43;98828.84;;;8.78;66.29
15880;BME280;61999;51.514;14.614;2023-04-24T11:19:22;98838.44;;;7.99;68.09
15880;BME280;61999;51.514;14.614;2023-04-24T11:21:58;98835.44;;;7.23;71.03
15880;BME280;61999;51.514;14.614;2023-04-24T11:24:31;98835.19;;;6.84;69.49
15880;BME280;61999;51.514;14.614;2023-04-24T11:27:06;98843.09;;;7.15;70.23
15880;BME280;61999;51.514;14.614;2023-04-24T11:29:48;98841.81;;;7.71;67.46
15880;BME280;61999;51.514;14.614;2023-04-24T11:32:25;98840.78;;;7.52;67.32
15880;BME280;61999;51.514;14.614;2023-04-24T11:34:56;98844.69;;;8.08;67.27
15880;BME280;61999;51.514;14.614;2023-04-24T11:37:29;98847.47;;;7.66;67.22
15880;BME280;61999;51.514;14.614;2023-04-24T11:40:00;98850.75;;;6.01;68.57
15880;BME280;61999;51.514;14.614;2023-04-24T11:42:34;98844.13;;;6.29;70.74
15880;BME280;61999;51.514;14.614;2023-04-24T11:45:09;98838.22;;;6.80;66.68
15880;BME280;61999;51.514;14.614;2023-04-24T11:47:37;98841.91;;;6.45;68.53
15880;BME280;61999;51.514;14.614;2023-04-24T11:50:10;98837.25;;;6.81;66.56
15880;BME280;61999;51.514;14.614;2023-04-24T11:52:40;98834.53;;;6.71;67.15
15880;BME280;61999;51.514;14.614;2023-04-24T11:55:24;98835.69;;;7.20;66.27
15880;BME280;61999;51.514;14.614;2023-04-24T11:57:56;98839.69;;;7.86;65.98
15880;BME280;61999;51.514;14.614;2023-04-24T12:00:28;98834.28;;;7.97;65.88
15880;BME280;61999;51.514;14.614;2023-04-24T12:03:06;98831.03;;;8.34;64.28
15880;BME280;61999;51.514;14.614;2023-04-24T12:05:34;98835.34;;;8.54;64.43
15880;BME280;61999;51.514;14.614;2023-04-24T12:08:03;98827.16;;;8.77;62.89
15880;BME280;61999;51.514;14.614;2023-04-24T12:10:33;98825.97;;;9.08;62.77
15880;BME280;61999;51.514;14.614;2023-04-24T12:13:01;98823.13;;;8.73;60.78
15880;BME280;61999;51.514;14.614;2023-04-24T12:15:30;98817.72;;;8.94;60.14
15880;BME280;61999;51.514;14.614;2023-04-24T12:17:59;98825.72;;;9.11;57.90
15880;BME280;61999;51.514;14.614;2023-04-24T12:20:29;98821.28;;;9.02;57.81
15880;BME280;61999;51.514;14.614;2023-04-24T12:23:00;98814.72;;;9.53;55.96
15880;BME280;61999;51.514;14.614;2023-04-24T12:25:29;98814.66;;;9.73;54.48
15880;BME280;61999;51.514;14.614;2023-04-24T12:28:10;98799.97;;;10.16;55.22
15880;BME280;61999;51.514;14.614;2023-04-24T12:30:43;98800.25;;;10.48;52.11
15880;BME280;61999;51.514;14.614;2023-04-24T12:33:12;98798.66;;;11.00;50.72
15880;BME280;61999;51.514;14.614;2023-04-24T12:35:40;98809.03;;;11.27;49.83
15880;BME280;61999;51.514;14.614;2023-04-24T12:38:10;98794.59;;;11.40;50.47
15880;BME280;61999;51.514;14.614;2023-04-24T12:40:40;98797.06;;;11.84;47.57
15880;BME280;61999;51.514;14.614;2023-04-24T12:43:14;98793.13;;;11.96;47.21
15880;BME280;61999;51.514;14.614;2023-04-24T12:45:44;98795.78;;;12.04;46.38
15880;BME280;61999;51.514;14.614;2023-04-24T12:48:13;98799.97;;;12.56;46.94
15880;BME280;61999;51.514;14.614;2023-04-24T12:50:41;98794.16;;;12.77;45.52
15880;BME280;61999;51.514;14.614;2023-04-24T12:53:11;98792.88;;;12.40;45.89
15880;BME280;61999;51.514;14.614;2023-04-24T12:55:39;98791.66;;;12.10;46.25
15880;BME280;61999;51.514;14.614;2023-04-24T12:58:07;98789.34;;;12.80;45.40
15880;BME280;61999;51.514;14.614;2023-04-24T13:00:36;98791.72;;;12.42;43.81
15880;BME280;61999;51.514;14.614;2023-04-24T13:03:05;98787.81;;;11.88;45.70
15880;BME280;61999;51.514;14.614;2023-04-24T13:05:33;98781.34;;;11.31;46.68
15880;BME280;61999;51.514;14.614;2023-04-24T13:08:02;98785.84;;;11.05;46.61
15880;BME280;61999;51.514;14.614;2023-04-24T13:10:30;98782.03;;;10.37;48.92
15880;BME280;61999;51.514;14.614;2023-04-24T13:12:58;98780.09;;;10.39;47.58